HUAL Seoul — LADO6 — position and weather

sailwx.info

Track history (hours):
 
Tides and Currents Weather Stations Pressure Air Temp Water Temp Dewpoint Dewpoint Depression Visibility Wind Speed Wind Dir Waves Ship Positions

HUAL Seoul

Last reported at 2015-Aug-24 06:04 UTC. Time now 2015-Sep-03 08:54 UTC.
Position N 28°12' W 119°10'.
Warning: this ship's position is 10 days out of date.

Type: Cargo ship. MMSI: 257496000.

Date/timePositionNaut miles runAvg speedWind from/ knotsBaromVisibWave heightAir tempDewpointWater temp
2015-Aug-24 06:04N 28°12' W 119°10'917.3
2015-Aug-24 05:33N 28°17' W 119°19'3517.4
2015-Aug-24 03:31N 28°38' W 119°51'1717.5
2015-Aug-24 02:34N 28°48' W 120°07'1817.6
2015-Aug-24 01:33N 28°58' W 120°23'1817.6
2015-Aug-24 00:33N 29°09' W 120°39'1817.6
2015-Aug-23 23:33N 29°19' W 120°55'1817.6
2015-Aug-23 22:33N 29°29' W 121°12'1917.5
2015-Aug-23 21:28N 29°40' W 121°29'1917.6
2015-Aug-23 20:25N 29°52' W 121°47'1517.4
2015-Aug-23 19:34N 30°00' W 122°01'  
Track history (hours):
 
Tides and Currents Weather Stations Pressure Air Temp Water Temp Dewpoint Dewpoint Depression Visibility Wind Speed Wind Dir Waves Ship Positions

HUAL Seoul

Last reported at 2015-Aug-24 06:04 UTC. Time now 2015-Sep-03 08:54 UTC.
Position N 28°12' W 119°10'.
Warning: this ship's position is 10 days out of date.

Type: Cargo ship. MMSI: 257496000.

Date/timePositionNaut miles runAvg speedWind from/ knotsBaromVisibWave heightAir tempDewpointWater temp
2015-Aug-24 06:04N 28°12' W 119°10'917.3
2015-Aug-24 05:33N 28°17' W 119°19'3517.4
2015-Aug-24 03:31N 28°38' W 119°51'1717.5
2015-Aug-24 02:34N 28°48' W 120°07'1817.6
2015-Aug-24 01:33N 28°58' W 120°23'1817.6
2015-Aug-24 00:33N 29°09' W 120°39'1817.6
2015-Aug-23 23:33N 29°19' W 120°55'1817.6
2015-Aug-23 22:33N 29°29' W 121°12'1917.5
2015-Aug-23 21:28N 29°40' W 121°29'1917.6
2015-Aug-23 20:25N 29°52' W 121°47'1517.4
2015-Aug-23 19:34N 30°00' W 122°01'  

Dump ship's entire track history